Time;durP1;ratioP1;P1;durP2;ratioP2;P2;SDS_P1;SDS_P2;PMS_P1;PMS_P2;Temp;Humidity;BMP_temperature;BMP_pressure;BME280_temperature;BME280_humidity;BME280_pressure;Samples;Min_cycle;Max_cycle;Signal;HPM_P1;HPM_P2
2022/07/10 00:01:46;;;;;;;26.10;4.13;;;11.80;99.90;;;;;;5008057;28;20510;-53
2022/07/10 00:04:14;;;;;;;31.92;5.05;;;11.80;98.90;;;;;;5023488;28;20041;-55
2022/07/10 00:06:42;;;;;;;15.10;2.70;;;11.90;98.80;;;;;;5008946;28;20033;-54
2022/07/10 00:09:09;;;;;;;23.98;4.03;;;11.90;98.40;;;;;;5007613;28;20033;-57
2022/07/10 00:11:37;;;;;;;18.05;3.15;;;12.00;98.60;;;;;;5008365;28;20081;-53
2022/07/10 00:14:04;;;;;;;12.90;2.47;;;12.10;98.60;;;;;;5006719;28;20033;-54
2022/07/10 00:16:31;;;;;;;17.40;2.65;;;12.10;98.10;;;;;;5008336;28;20426;-52
2022/07/10 00:18:58;;;;;;;23.30;2.70;;;12.10;98.10;;;;;;5007182;28;20026;-53
2022/07/10 00:21:28;;;;;;;19.73;4.15;;;12.20;98.20;;;;;;4998972;28;20034;-53
2022/07/10 00:23:56;;;;;;;18.83;3.00;;;12.30;97.50;;;;;;5008482;28;20026;-52
2022/07/10 00:26:23;;;;;;;16.98;2.83;;;12.40;97.00;;;;;;5007277;28;20029;-56
2022/07/10 00:28:50;;;;;;;19.33;2.88;;;12.50;96.70;;;;;;5008568;28;20064;-55
2022/07/10 00:31:17;;;;;;;21.00;3.88;;;12.70;97.20;;;;;;5008458;28;20045;-51
2022/07/10 00:33:45;;;;;;;17.55;3.50;;;12.90;97.00;;;;;;5006564;28;20022;-54
2022/07/10 00:36:12;;;;;;;16.08;3.63;;;12.90;95.80;;;;;;5008656;28;20483;-54
2022/07/10 00:38:39;;;;;;;30.38;3.30;;;13.00;95.70;;;;;;5007991;28;20513;-58
2022/07/10 00:41:06;;;;;;;14.65;2.53;;;13.00;95.30;;;;;;5010286;28;20040;-53
2022/07/10 00:44:06;;;;;;;20.27;2.97;;;13.10;95.90;;;;;;5009331;28;20108;-54
2022/07/10 00:46:33;;;;;;;24.35;3.45;;;13.30;96.30;;;;;;4982590;28;20597;-55
2022/07/10 00:49:00;;;;;;;21.52;4.55;;;13.40;95.90;;;;;;5005272;28;20624;-53
2022/07/10 00:51:30;;;;;;;14.57;2.47;;;13.50;95.90;;;;;;4989914;28;20076;-56
2022/07/10 00:53:59;;;;;;;13.80;2.90;;;13.40;95.00;;;;;;4996205;28;20395;-53
2022/07/10 00:56:27;;;;;;;25.80;3.58;;;13.40;95.60;;;;;;5015810;28;20112;-52
2022/07/10 00:58:55;;;;;;;18.75;3.10;;;13.30;95.60;;;;;;5029325;28;20017;-50
2022/07/10 01:01:23;;;;;;;14.85;3.78;;;13.20;96.10;;;;;;5012942;28;20033;-53
2022/07/10 01:03:51;;;;;;;21.65;3.55;;;13.10;96.20;;;;;;5003622;28;20021;-50
2022/07/10 01:06:19;;;;;;;21.42;3.28;;;13.00;96.20;;;;;;5007931;28;20037;-52
2022/07/10 01:08:47;;;;;;;19.02;3.30;;;13.00;96.60;;;;;;5007548;28;20092;-51
2022/07/10 01:11:14;;;;;;;17.08;3.20;;;12.90;96.90;;;;;;5005980;28;20048;-56
2022/07/10 01:13:43;;;;;;;18.63;2.78;;;12.90;96.90;;;;;;5008520;28;20026;-52
2022/07/10 01:16:12;;;;;;;20.90;3.60;;;12.80;97.20;;;;;;5006752;28;20111;-53
2022/07/10 01:18:40;;;;;;;23.20;3.63;;;12.70;97.20;;;;;;5007888;28;20393;-57
2022/07/10 01:21:23;;;;;;;16.92;3.17;;;12.70;98.00;;;;;;5008767;28;20471;-50
2022/07/10 01:23:51;;;;;;;15.80;2.92;;;12.80;98.30;;;;;;5013812;28;20061;-49
2022/07/10 01:26:20;;;;;;;23.73;2.85;;;13.00;98.00;;;;;;5008811;28;20540;-56
2022/07/10 01:28:50;;;;;;;17.48;2.42;;;13.20;96.90;;;;;;5006510;28;20605;-54
2022/07/10 01:31:20;;;;;;;27.08;3.20;;;13.50;96.90;;;;;;5004994;28;20422;-53
2022/07/10 01:33:48;;;;;;;21.23;2.88;;;13.90;95.00;;;;;;5007728;28;20034;-53
2022/07/10 01:36:17;;;;;;;25.40;4.28;;;14.10;94.40;;;;;;5004941;28;20036;-58
2022/07/10 01:38:44;;;;;;;21.98;2.88;;;13.90;93.30;;;;;;5004699;28;20029;-56
2022/07/10 01:41:11;;;;;;;19.65;2.88;;;13.70;94.30;;;;;;5006801;28;20041;-50
2022/07/10 01:43:44;;;;;;;25.48;3.10;;;13.50;95.00;;;;;;5006747;28;20033;-54
2022/07/10 01:46:12;;;;;;;18.42;3.42;;;13.30;95.60;;;;;;5005997;28;20046;-56
2022/07/10 01:48:40;;;;;;;18.30;4.20;;;13.20;96.20;;;;;;5010914;28;20022;-55
2022/07/10 01:51:09;;;;;;;19.05;2.63;;;13.00;95.80;;;;;;5010982;28;20391;-62
2022/07/10 01:53:37;;;;;;;20.55;2.78;;;13.10;95.90;;;;;;5010151;28;20079;-56
2022/07/10 01:56:09;;;;;;;21.50;3.28;;;13.20;95.70;;;;;;5008574;28;20034;-56
2022/07/10 01:58:37;;;;;;;15.95;3.67;;;13.40;95.20;;;;;;5012149;28;20025;-54
2022/07/10 02:01:06;;;;;;;17.30;3.30;;;13.50;95.70;;;;;;5011017;28;20064;-56
2022/07/10 02:06:18;;;;;;;14.73;3.15;;;13.80;94.20;;;;;;5010265;28;20544;-54
2022/07/10 02:08:45;;;;;;;14.93;3.45;;;14.00;92.40;;;;;;5010573;28;20092;-56
2022/07/10 02:11:13;;;;;;;16.23;3.03;;;14.10;93.00;;;;;;5009431;28;20030;-56
2022/07/10 02:13:40;;;;;;;19.60;3.25;;;14.20;92.90;;;;;;5010954;28;20013;-56
2022/07/10 02:16:08;;;;;;;17.95;4.03;;;14.30;92.00;;;;;;5011092;28;20022;-56
2022/07/10 02:18:35;;;;;;;17.58;2.65;;;14.40;92.20;;;;;;5011099;28;20022;-54
2022/07/10 02:21:02;;;;;;;16.73;3.30;;;14.50;91.60;;;;;;5010260;28;20036;-55
2022/07/10 02:23:29;;;;;;;20.38;3.35;;;14.60;91.10;;;;;;5011419;28;20094;-56
2022/07/10 02:25:57;;;;;;;17.63;2.95;;;14.70;91.10;;;;;;5006822;28;20029;-56
2022/07/10 02:28:24;;;;;;;12.45;2.20;;;14.80;90.90;;;;;;5013311;28;20026;-53
2022/07/10 02:30:51;;;;;;;13.95;3.83;;;15.00;90.00;;;;;;5009544;28;20691;-57
2022/07/10 02:33:18;;;;;;;11.18;2.03;;;15.20;89.90;;;;;;5002938;28;20036;-56
2022/07/10 02:35:46;;;;;;;11.38;2.60;;;15.40;86.00;;;;;;5008972;28;20034;-57
2022/07/10 02:38:13;;;;;;;15.05;3.40;;;15.40;88.50;;;;;;5010871;28;20387;-56
2022/07/10 02:40:40;;;;;;;10.98;2.10;;;15.30;88.20;;;;;;5009160;28;20030;-57
2022/07/10 02:43:07;;;;;;;18.02;2.30;;;15.20;89.20;;;;;;5010181;28;20065;-53
2022/07/10 02:45:35;;;;;;;16.88;4.55;;;15.00;90.50;;;;;;5010393;28;20552;-53
2022/07/10 02:48:02;;;;;;;11.25;2.17;;;14.70;89.80;;;;;;5009043;28;20132;-51
2022/07/10 02:50:29;;;;;;;11.10;3.15;;;14.40;90.90;;;;;;5010068;28;20626;-55
2022/07/10 02:52:56;;;;;;;13.38;3.22;;;14.10;92.20;;;;;;5009967;28;20029;-55
2022/07/10 02:55:24;;;;;;;18.70;3.50;;;13.80;94.00;;;;;;5011409;28;20109;-51
2022/07/10 02:57:51;;;;;;;19.65;3.20;;;13.50;95.20;;;;;;5013252;28;20034;-52
2022/07/10 03:00:18;;;;;;;15.63;2.42;;;13.30;95.40;;;;;;5010777;28;20026;-56
2022/07/10 03:02:45;;;;;;;16.35;2.53;;;13.40;96.80;;;;;;5009710;28;20034;-54
2022/07/10 03:05:13;;;;;;;18.30;2.70;;;13.40;97.20;;;;;;5011052;28;20026;-56
2022/07/10 03:07:40;;;;;;;19.50;2.45;;;13.40;97.00;;;;;;5010628;28;20033;-52
2022/07/10 03:10:07;;;;;;;14.50;2.45;;;13.40;97.00;;;;;;5011478;28;20025;-57
2022/07/10 03:12:35;;;;;;;17.27;2.90;;;13.50;97.30;;;;;;5011701;28;20054;-56
2022/07/10 03:15:02;;;;;;;15.60;3.80;;;13.50;96.80;;;;;;5004028;28;20060;-57
2022/07/10 03:17:29;;;;;;;18.35;3.45;;;13.70;96.00;;;;;;5002378;28;20735;-55
2022/07/10 03:19:56;;;;;;;22.10;2.80;;;13.60;94.50;;;;;;4999925;28;20076;-54
2022/07/10 03:22:24;;;;;;;12.82;1.80;;;13.60;95.30;;;;;;5012584;28;20041;-54
2022/07/10 03:24:51;;;;;;;13.10;3.03;;;13.60;94.50;;;;;;5011229;28;20030;-57
2022/07/10 03:27:18;;;;;;;9.30;1.95;;;13.60;94.20;;;;;;5001765;28;20475;-57
2022/07/10 03:29:46;;;;;;;14.93;2.50;;;13.70;93.70;;;;;;5008188;28;20038;-57
2022/07/10 03:32:13;;;;;;;11.73;2.00;;;13.60;93.00;;;;;;5010060;28;20470;-53
2022/07/10 03:34:41;;;;;;;12.77;2.35;;;13.60;94.40;;;;;;5009017;28;20088;-58
2022/07/10 03:37:08;;;;;;;13.38;2.67;;;13.50;93.00;;;;;;5009132;28;20025;-56
2022/07/10 03:39:35;;;;;;;12.75;1.77;;;13.60;93.60;;;;;;5010626;28;20030;-57
2022/07/10 03:42:02;;;;;;;11.95;1.85;;;13.60;93.50;;;;;;5010100;28;20021;-55
2022/07/10 03:44:30;;;;;;;14.45;2.25;;;13.70;93.80;;;;;;5010159;28;20037;-57
2022/07/10 03:46:57;;;;;;;12.65;2.08;;;13.70;93.50;;;;;;5006223;28;20427;-56
2022/07/10 03:49:24;;;;;;;13.13;2.22;;;13.90;93.60;;;;;;5010462;28;20133;-57
2022/07/10 03:51:51;;;;;;;17.63;2.53;;;14.20;92.50;;;;;;5017266;28;20029;-55
2022/07/10 03:54:18;;;;;;;14.95;3.65;;;14.50;93.40;;;;;;5013805;28;20022;-57
2022/07/10 03:59:31;;;;;;;15.80;2.58;;;14.30;92.50;;;;;;5010239;28;20133;-58
2022/07/10 04:01:58;;;;;;;18.60;2.90;;;14.10;92.90;;;;;;5009668;28;20064;-60
2022/07/10 04:04:25;;;;;;;15.95;2.70;;;14.10;93.20;;;;;;5008544;28;20033;-59
2022/07/10 04:06:53;;;;;;;13.43;2.58;;;14.10;92.90;;;;;;5007946;28;20446;-60
2022/07/10 04:09:20;;;;;;;18.35;2.63;;;14.20;93.00;;;;;;5010427;28;20026;-58
2022/07/10 04:11:47;;;;;;;14.35;2.53;;;14.20;92.10;;;;;;4997096;28;20022;-58
2022/07/10 04:14:14;;;;;;;12.63;2.78;;;14.40;91.70;;;;;;5006947;28;20402;-59
2022/07/10 04:16:41;;;;;;;15.35;1.67;;;14.50;92.20;;;;;;5011088;28;20030;-60
2022/07/10 04:19:09;;;;;;;8.90;2.25;;;14.80;91.00;;;;;;5014122;28;20018;-61
2022/07/10 04:21:36;;;;;;;10.98;2.47;;;14.90;90.20;;;;;;5017627;28;20029;-60
2022/07/10 04:24:04;;;;;;;15.15;3.03;;;14.90;90.20;;;;;;5011349;28;20022;-60
2022/07/10 04:26:31;;;;;;;13.80;2.25;;;14.80;89.70;;;;;;5021757;28;20053;-59
2022/07/10 04:28:59;;;;;;;9.55;1.70;;;14.80;90.30;;;;;;5012553;28;20562;-60
2022/07/10 04:31:26;;;;;;;18.30;1.80;;;15.00;90.50;;;;;;5008389;28;20379;-58
2022/07/10 04:33:53;;;;;;;11.15;1.95;;;14.90;89.70;;;;;;5019364;28;20040;-53
2022/07/10 04:36:20;;;;;;;11.23;2.00;;;14.90;86.40;;;;;;5019216;28;20030;-56
2022/07/10 04:38:48;;;;;;;5.93;0.80;;;14.90;86.20;;;;;;5015223;28;20048;-52
2022/07/10 04:41:15;;;;;;;12.10;1.40;;;15.00;86.90;;;;;;5008909;28;20437;-56
2022/07/10 04:43:42;;;;;;;3.75;1.50;;;15.10;84.30;;;;;;5020683;28;20028;-57
2022/07/10 04:46:09;;;;;;;7.18;1.40;;;15.10;85.50;;;;;;5013627;28;20050;-61
2022/07/10 04:48:36;;;;;;;6.70;1.33;;;15.00;83.80;;;;;;5025481;28;20026;-52
2022/07/10 04:51:04;;;;;;;10.43;1.25;;;15.00;85.00;;;;;;5004625;28;20446;-56
2022/07/10 04:53:31;;;;;;;9.63;1.48;;;15.00;83.80;;;;;;5010801;28;20018;-58
2022/07/10 04:55:58;;;;;;;12.65;2.25;;;15.00;85.40;;;;;;5010146;28;20033;-56
2022/07/10 04:58:25;;;;;;;9.02;1.48;;;15.10;85.80;;;;;;5020204;28;20390;-52
2022/07/10 05:00:52;;;;;;;11.13;2.33;;;15.20;85.50;;;;;;5007662;28;20482;-57
2022/07/10 05:03:20;;;;;;;9.30;1.85;;;15.20;84.20;;;;;;5007435;28;20160;-54
2022/07/10 05:05:47;;;;;;;6.28;1.25;;;15.10;84.20;;;;;;5007686;28;20026;-55
2022/07/10 05:08:15;;;;;;;5.95;1.17;;;15.00;85.60;;;;;;5006318;28;20032;-53
2022/07/10 05:10:42;;;;;;;5.15;1.17;;;14.80;86.90;;;;;;5005553;28;20033;-55
2022/07/10 05:13:10;;;;;;;13.35;2.80;;;14.70;87.30;;;;;;5008385;28;20029;-56
2022/07/10 05:15:38;;;;;;;5.43;1.75;;;14.70;86.60;;;;;;5002091;28;20101;-53
2022/07/10 05:18:05;;;;;;;6.53;1.33;;;14.90;86.60;;;;;;5008043;28;20498;-52
2022/07/10 05:20:35;;;;;;;4.35;1.20;;;15.00;85.50;;;;;;5001862;28;20534;-56
2022/07/10 05:23:02;;;;;;;9.40;1.52;;;15.10;86.50;;;;;;5011276;28;20096;-54
2022/07/10 05:25:30;;;;;;;11.23;1.90;;;15.10;88.30;;;;;;5010456;28;20056;-56
2022/07/10 05:27:57;;;;;;;9.23;1.70;;;14.70;91.40;;;;;;5012456;28;20026;-56
2022/07/10 05:30:24;;;;;;;10.70;1.95;;;14.30;93.30;;;;;;5011385;28;20065;-54
2022/07/10 05:32:52;;;;;;;6.18;1.50;;;13.80;94.30;;;;;;5011189;28;20022;-56
2022/07/10 05:35:19;;;;;;;14.23;1.75;;;13.40;94.90;;;;;;5009635;28;20018;-54
2022/07/10 05:37:46;;;;;;;11.05;1.95;;;13.00;96.30;;;;;;5011218;28;20026;-54
2022/07/10 05:40:13;;;;;;;12.18;2.63;;;12.70;97.30;;;;;;5006804;28;20038;-54
2022/07/10 05:42:41;;;;;;;13.75;2.33;;;12.50;97.70;;;;;;5008110;28;20435;-52
2022/07/10 05:45:09;;;;;;;7.72;1.77;;;12.30;98.50;;;;;;5009948;28;22244;-54
2022/07/10 05:47:36;;;;;;;6.32;1.20;;;12.20;98.70;;;;;;5010514;28;20499;-51
2022/07/10 05:50:04;;;;;;;9.32;1.40;;;12.10;98.80;;;;;;5011988;28;20034;-54
2022/07/10 05:52:31;;;;;;;9.15;1.58;;;12.00;98.90;;;;;;5012423;28;20026;-53
2022/07/10 05:54:59;;;;;;;13.13;1.88;;;12.00;99.10;;;;;;5008049;28;20065;-52
2022/07/10 05:57:26;;;;;;;7.95;2.08;;;12.00;99.20;;;;;;5006416;28;20114;-55
2022/07/10 05:59:54;;;;;;;12.80;2.45;;;12.00;99.30;;;;;;5004687;28;20025;-54
2022/07/10 06:02:21;;;;;;;15.38;3.15;;;12.00;99.60;;;;;;5012680;28;20011;-55
2022/07/10 06:04:49;;;;;;;20.00;8.95;;;12.10;99.90;;;;;;5011316;28;20497;-57
2022/07/10 06:07:16;;;;;;;17.58;6.40;;;12.00;99.90;;;;;;5004414;28;20034;-54
2022/07/10 06:09:44;;;;;;;12.32;4.65;;;12.10;99.90;;;;;;5006225;28;20488;-55
2022/07/10 06:12:11;;;;;;;11.82;2.17;;;12.10;99.90;;;;;;5005879;28;20482;-52
2022/07/10 06:14:38;;;;;;;8.35;1.77;;;12.00;99.80;;;;;;4993882;28;20115;-52
2022/07/10 06:17:05;;;;;;;8.98;2.17;;;12.00;99.80;;;;;;5005253;28;20058;-56
2022/07/10 06:19:33;;;;;;;9.65;1.92;;;11.90;99.80;;;;;;5008439;28;20115;-56
2022/07/10 06:24:45;;;;;;;9.85;4.60;;;11.80;99.90;;;;;;5003065;28;20518;-54
2022/07/10 06:27:13;;;;;;;16.13;3.47;;;11.80;99.70;;;;;;5007372;28;20018;-53
2022/07/10 06:29:41;;;;;;;5.28;3.10;;;11.80;99.60;;;;;;5008627;28;20161;-50
2022/07/10 06:32:08;;;;;;;7.13;1.80;;;11.70;99.50;;;;;;5009993;28;20026;-52
2022/07/10 06:34:36;;;;;;;12.55;2.22;;;11.60;99.50;;;;;;5000933;28;20037;-57
2022/07/10 06:37:03;;;;;;;6.38;2.17;;;11.60;99.50;;;;;;5004546;28;20029;-49
2022/07/10 06:39:36;;;;;;;10.15;3.60;;;11.60;99.60;;;;;;5007991;28;20037;-52
2022/07/10 06:42:04;;;;;;;5.97;3.30;;;11.50;99.60;;;;;;4996578;28;20038;-55
2022/07/10 06:44:32;;;;;;;59.03;35.38;;;11.50;99.80;;;;;;5008113;28;20145;-55
2022/07/10 06:49:48;;;;;;;12.85;5.32;;;11.60;99.90;;;;;;5008836;28;20096;-52
2022/07/10 06:52:16;;;;;;;11.98;3.78;;;11.60;99.90;;;;;;5008691;28;20057;-55
2022/07/10 06:54:44;;;;;;;13.40;3.00;;;11.60;99.90;;;;;;5008233;28;20040;-50
2022/07/10 06:57:11;;;;;;;4.53;1.73;;;11.60;99.90;;;;;;5004141;28;20033;-58
2022/07/10 06:59:39;;;;;;;7.82;2.65;;;11.60;99.90;;;;;;5008115;28;20037;-49
2022/07/10 07:02:06;;;;;;;8.50;2.58;;;11.60;99.90;;;;;;5008411;28;20030;-54
2022/07/10 07:04:33;;;;;;;13.18;3.95;;;11.60;99.90;;;;;;5007968;28;20065;-55
2022/07/10 07:07:02;;;;;;;11.32;2.35;;;11.60;99.90;;;;;;5005292;28;20033;-54
2022/07/10 07:09:29;;;;;;;13.80;5.03;;;11.50;99.90;;;;;;5007272;28;20377;-53
2022/07/10 07:11:57;;;;;;;10.80;3.25;;;11.40;99.90;;;;;;5007366;28;20494;-51
2022/07/10 07:14:24;;;;;;;13.07;3.17;;;11.40;99.90;;;;;;5007071;28;20065;-54
2022/07/10 07:16:59;;;;;;;8.20;2.33;;;11.30;99.90;;;;;;5003041;28;20105;-51
2022/07/10 07:23:09;;;;;;;12.02;2.50;;;11.30;99.90;;;;;;5007812;28;20030;-56
2022/07/10 07:25:08;;;;;;;5.78;2.05;;;11.00;99.30;;;;;;5018475;28;20060;-53
2022/07/10 07:27:37;;;;;;;7.60;1.77;;;10.80;99.30;;;;;;5006780;28;20018;-49
2022/07/10 07:30:10;;;;;;;13.07;1.92;;;10.70;99.60;;;;;;5014325;28;20042;-51
2022/07/10 07:32:39;;;;;;;11.35;2.88;;;10.70;99.90;;;;;;5002797;28;20763;-52
2022/07/10 07:35:07;;;;;;;9.95;3.08;;;10.70;99.90;;;;;;5003999;28;20029;-54
2022/07/10 07:37:42;;;;;;;16.35;4.25;;;10.60;99.90;;;;;;5012105;28;20026;-54
2022/07/10 07:40:12;;;;;;;9.48;3.20;;;10.60;99.90;;;;;;5003071;28;20030;-53
2022/07/10 07:42:41;;;;;;;17.55;2.20;;;10.60;99.90;;;;;;5007174;28;20072;-52
2022/07/10 07:45:09;;;;;;;12.55;2.20;;;10.70;99.90;;;;;;5013379;28;20068;-52
2022/07/10 07:47:59;;;;;;;12.45;2.10;;;10.70;99.90;;;;;;5021933;28;20057;-51
2022/07/10 07:50:32;;;;;;;13.00;2.40;;;10.70;99.90;;;;;;4997478;28;20112;-55
2022/07/10 07:53:04;;;;;;;11.25;2.08;;;10.70;99.90;;;;;;4998965;28;20030;-53
2022/07/10 07:55:33;;;;;;;15.40;3.90;;;10.80;99.90;;;;;;5001400;28;20668;-54
2022/07/10 07:58:00;;;;;;;9.48;2.90;;;10.70;99.90;;;;;;5005152;28;20032;-54
2022/07/10 08:00:29;;;;;;;8.07;2.70;;;10.80;99.90;;;;;;4999206;28;20051;-49
2022/07/10 08:02:57;;;;;;;14.68;2.47;;;10.80;99.90;;;;;;5000708;28;20037;-53
2022/07/10 08:05:25;;;;;;;8.02;2.42;;;10.80;99.90;;;;;;5001909;28;20387;-50
2022/07/10 08:07:55;;;;;;;11.10;2.30;;;10.90;99.90;;;;;;4999705;28;20028;-51
2022/07/10 08:10:27;;;;;;;13.73;3.08;;;10.90;99.90;;;;;;5006487;28;20045;-50
2022/07/10 08:12:54;;;;;;;14.27;6.85;;;10.90;99.90;;;;;;4999854;28;20036;-52
2022/07/10 08:15:23;;;;;;;10.88;6.57;;;10.90;99.90;;;;;;4999697;28;20025;-52
2022/07/10 08:17:52;;;;;;;14.77;3.20;;;11.00;99.90;;;;;;4995804;28;20402;-51
2022/07/10 08:20:19;;;;;;;12.52;6.35;;;11.00;99.90;;;;;;5019718;28;20060;-53
2022/07/10 08:22:48;;;;;;;11.40;3.35;;;10.90;99.90;;;;;;4997978;28;20054;-53
2022/07/10 08:25:15;;;;;;;10.00;2.85;;;11.00;99.90;;;;;;4997487;28;20692;-54
2022/07/10 08:27:42;;;;;;;10.75;4.00;;;10.90;99.90;;;;;;5002275;28;20053;-52
2022/07/10 08:30:11;;;;;;;14.05;5.82;;;10.90;99.90;;;;;;4995507;28;20072;-54
2022/07/10 08:32:40;;;;;;;7.82;3.13;;;10.90;99.90;;;;;;4998982;28;20393;-53
2022/07/10 08:35:08;;;;;;;5.40;2.42;;;10.90;99.90;;;;;;4998078;28;20518;-54
2022/07/10 08:37:43;;;;;;;6.78;1.50;;;10.90;99.90;;;;;;5000704;28;20074;-54
2022/07/10 08:40:12;;;;;;;14.02;3.78;;;10.90;99.90;;;;;;5000217;28;20030;-53
2022/07/10 08:42:41;;;;;;;12.07;7.72;;;10.80;99.90;;;;;;4989268;28;20034;-50
2022/07/10 08:45:09;;;;;;;9.70;2.95;;;10.70;99.90;;;;;;5000211;28;20037;-52
2022/07/10 08:47:38;;;;;;;12.48;2.17;;;10.70;99.90;;;;;;5005082;28;20073;-56
2022/07/10 08:50:07;;;;;;;9.68;1.85;;;10.70;99.90;;;;;;5005224;28;20042;-51
2022/07/10 08:52:44;;;;;;;6.97;1.55;;;10.60;99.90;;;;;;5002724;28;20022;-57
2022/07/10 08:55:15;;;;;;;7.80;1.35;;;10.60;99.90;;;;;;5001739;28;20494;-55
2022/07/10 08:57:44;;;;;;;9.90;1.38;;;10.50;99.90;;;;;;5004719;28;20597;-54
2022/07/10 09:00:11;;;;;;;32.22;27.38;;;10.50;99.90;;;;;;5004188;28;20076;-65
2022/07/10 09:02:38;;;;;;;16.05;7.47;;;10.50;99.90;;;;;;5004501;28;20099;-52
2022/07/10 09:05:08;;;;;;;33.85;22.77;;;10.40;99.90;;;;;;5005490;28;20069;-53
2022/07/10 09:07:41;;;;;;;25.02;13.45;;;10.40;99.90;;;;;;5005131;28;20773;-55
2022/07/10 09:10:10;;;;;;;17.30;9.95;;;10.40;99.90;;;;;;5004924;28;20107;-54
2022/07/10 09:13:03;;;;;;;42.00;23.13;;;10.50;99.90;;;;;;4998838;28;20029;-50
2022/07/10 09:15:32;;;;;;;9.75;5.88;;;10.50;99.90;;;;;;5000453;28;20030;-52
2022/07/10 09:18:08;;;;;;;7.55;3.97;;;10.50;99.90;;;;;;5000838;28;20525;-55
2022/07/10 09:20:37;;;;;;;13.57;5.70;;;10.50;99.90;;;;;;4997232;28;20046;-55
2022/07/10 09:23:30;;;;;;;14.20;8.75;;;10.50;99.90;;;;;;4997947;28;20076;-54
2022/07/10 09:26:02;;;;;;;17.60;13.02;;;10.50;99.90;;;;;;5002613;28;20049;-54
2022/07/10 09:28:29;;;;;;;11.20;6.00;;;10.50;99.90;;;;;;5011012;28;20437;-52
2022/07/10 09:30:57;;;;;;;13.38;6.28;;;10.50;99.90;;;;;;5008042;28;20061;-51
2022/07/10 09:33:34;;;;;;;14.30;10.15;;;10.50;99.90;;;;;;5005112;28;20137;-53
2022/07/10 09:36:08;;;;;;;13.52;8.15;;;10.40;99.90;;;;;;5016471;28;20057;-54
2022/07/10 09:38:45;;;;;;;15.70;8.13;;;10.40;99.90;;;;;;5005020;28;20037;-55
2022/07/10 09:41:22;;;;;;;19.75;12.20;;;10.50;99.90;;;;;;5019933;28;20042;-49
2022/07/10 09:43:59;;;;;;;4.15;2.00;;;10.40;99.90;;;;;;5006366;28;20028;-51
2022/07/10 09:46:33;;;;;;;3.83;1.85;;;10.40;99.90;;;;;;5001858;28;20045;-49
2022/07/10 09:49:11;;;;;;;12.07;6.63;;;10.50;99.90;;;;;;5011768;28;20032;-51
2022/07/10 09:51:46;;;;;;;5.15;2.97;;;10.50;99.90;;;;;;5000181;28;20621;-51
2022/07/10 09:54:14;;;;;;;7.13;2.30;;;10.50;99.90;;;;;;5000949;28;20041;-52
2022/07/10 09:56:43;;;;;;;11.40;3.83;;;10.50;99.90;;;;;;5004835;28;20032;-53
2022/07/10 09:59:21;;;;;;;8.57;4.18;;;10.60;99.90;;;;;;5000298;28;20034;-56
2022/07/10 10:01:50;;;;;;;10.85;2.85;;;10.70;99.90;;;;;;5005673;28;20034;-51
2022/07/10 10:04:25;;;;;;;9.98;2.97;;;10.70;99.90;;;;;;5011341;28;20076;-49
2022/07/10 10:06:56;;;;;;;6.50;3.00;;;10.70;99.90;;;;;;5010486;28;20100;-54
2022/07/10 10:09:34;;;;;;;4.72;2.33;;;10.70;99.90;;;;;;5007522;28;20014;-54
2022/07/10 10:12:08;;;;;;;8.50;3.17;;;10.70;99.90;;;;;;5005668;28;20040;-53
2022/07/10 10:14:36;;;;;;;7.43;1.63;;;10.70;99.90;;;;;;4993642;28;20049;-55
2022/07/10 10:17:04;;;;;;;18.90;12.50;;;10.70;99.90;;;;;;5007750;28;20037;-53
2022/07/10 10:22:21;;;;;;;9.82;4.93;;;10.60;99.90;;;;;;5007438;28;20499;-57
2022/07/10 10:24:49;;;;;;;17.83;2.78;;;10.60;99.90;;;;;;5012748;28;20030;-51
2022/07/10 10:27:17;;;;;;;6.93;1.50;;;10.50;99.90;;;;;;5006503;28;20033;-54
2022/07/10 10:29:47;;;;;;;3.78;1.60;;;10.50;99.90;;;;;;5004361;28;20915;-56
2022/07/10 10:32:14;;;;;;;3.50;1.05;;;10.40;99.90;;;;;;5007626;28;20033;-50
2022/07/10 10:34:59;;;;;;;3.03;1.10;;;10.40;99.90;;;;;;5006980;28;20089;-55
2022/07/10 10:37:34;;;;;;;7.35;1.40;;;10.40;99.90;;;;;;5005661;28;20037;-54
2022/07/10 10:40:03;;;;;;;3.53;1.30;;;10.40;99.90;;;;;;5005874;28;20026;-58
2022/07/10 10:42:34;;;;;;;5.88;1.05;;;10.40;99.90;;;;;;5008354;28;20472;-53
2022/07/10 10:45:36;;;;;;;2.00;0.80;;;10.40;99.90;;;;;;5007996;28;20224;-55
2022/07/10 10:48:10;;;;;;;6.30;1.98;;;10.40;99.90;;;;;;5016117;28;20048;-55
2022/07/10 10:50:42;;;;;;;3.33;1.30;;;10.50;99.90;;;;;;5013938;28;20029;-60
2022/07/10 10:53:17;;;;;;;5.20;1.05;;;10.50;99.90;;;;;;5004478;28;20038;-53
2022/07/10 10:56:08;;;;;;;4.40;1.55;;;10.50;99.90;;;;;;5002094;28;20046;-52
2022/07/10 10:58:41;;;;;;;6.93;2.15;;;10.50;99.90;;;;;;5002539;28;20022;-56
2022/07/10 11:01:32;;;;;;;4.75;1.40;;;10.50;99.90;;;;;;5007904;28;20605;-51
2022/07/10 11:04:08;;;;;;;2.45;1.00;;;10.50;99.90;;;;;;4994198;28;20057;-54
2022/07/10 11:06:53;;;;;;;6.65;1.77;;;10.50;99.90;;;;;;5003859;28;20040;-54
2022/07/10 11:09:32;;;;;;;8.77;1.30;;;10.40;99.90;;;;;;5002753;28;20087;-53
2022/07/10 11:12:08;;;;;;;3.88;1.85;;;10.40;99.90;;;;;;4994561;28;20472;-53
2022/07/10 11:14:42;;;;;;;8.18;2.05;;;10.40;99.90;;;;;;5000489;28;20022;-51
2022/07/10 11:17:09;;;;;;;4.40;1.45;;;10.40;99.90;;;;;;5006970;28;20084;-51
2022/07/10 11:19:37;;;;;;;9.60;2.65;;;10.30;99.90;;;;;;5002501;28;20034;-53
2022/07/10 11:22:41;;;;;;;8.77;2.13;;;10.30;99.90;;;;;;5003694;28;20103;-52
2022/07/10 11:25:35;;;;;;;18.10;11.63;;;10.20;99.90;;;;;;5007121;28;20033;-54
2022/07/10 11:28:10;;;;;;;14.90;9.87;;;10.20;99.90;;;;;;4999235;28;20037;-49
2022/07/10 11:30:54;;;;;;;6.35;3.00;;;10.30;99.90;;;;;;5015603;28;20030;-54
2022/07/10 11:33:22;;;;;;;4.85;1.25;;;10.30;99.90;;;;;;5005598;28;20103;-50
2022/07/10 11:35:52;;;;;;;4.05;1.10;;;10.30;99.90;;;;;;5005628;28;20037;-55
2022/07/10 11:38:26;;;;;;;9.23;4.07;;;10.40;99.90;;;;;;5005276;28;20036;-51
2022/07/10 11:40:54;;;;;;;4.70;1.30;;;10.40;99.90;;;;;;5000835;28;20026;-51
2022/07/10 11:43:23;;;;;;;9.15;1.55;;;10.40;99.90;;;;;;5011847;28;20112;-51
2022/07/10 11:45:54;;;;;;;2.05;1.10;;;10.40;99.90;;;;;;4996294;28;20112;-54
2022/07/10 11:48:23;;;;;;;4.97;2.20;;;10.40;99.90;;;;;;4991070;28;20046;-50
2022/07/10 11:50:51;;;;;;;5.75;1.30;;;10.40;99.90;;;;;;5001470;28;20084;-58
2022/07/10 11:53:28;;;;;;;5.80;1.00;;;10.40;99.90;;;;;;4994763;28;20030;-53
2022/07/10 11:55:55;;;;;;;7.93;1.50;;;10.40;99.90;;;;;;4995461;28;20029;-51
2022/07/10 11:58:23;;;;;;;4.40;1.20;;;10.40;99.90;;;;;;4997454;28;20095;-56
2022/07/10 12:01:02;;;;;;;5.53;1.00;;;10.40;99.90;;;;;;4996268;28;20034;-54
2022/07/10 12:03:29;;;;;;;6.00;1.13;;;10.30;99.90;;;;;;4998272;28;20088;-55
2022/07/10 12:06:06;;;;;;;6.25;1.08;;;10.30;99.90;;;;;;5003521;28;20112;-47
2022/07/10 12:08:49;;;;;;;3.92;1.13;;;10.30;99.90;;;;;;5004164;28;20121;-55
2022/07/10 12:11:18;;;;;;;4.03;0.80;;;10.30;99.90;;;;;;5007859;28;20029;-53
2022/07/10 12:13:47;;;;;;;6.70;1.65;;;10.20;99.90;;;;;;5007699;28;20026;-52
2022/07/10 12:16:15;;;;;;;3.75;1.10;;;10.20;99.90;;;;;;5007443;28;20030;-52
2022/07/10 12:18:43;;;;;;;6.15;2.28;;;10.20;99.90;;;;;;5008278;28;20049;-56
2022/07/10 12:21:12;;;;;;;7.22;1.17;;;10.20;99.90;;;;;;5008011;28;20511;-61
2022/07/10 12:23:41;;;;;;;6.07;1.20;;;10.20;99.90;;;;;;5007697;28;20022;-56
2022/07/10 12:26:12;;;;;;;9.35;4.85;;;10.20;99.90;;;;;;5008986;28;20037;-51
2022/07/10 12:28:51;;;;;;;8.77;1.40;;;10.30;99.90;;;;;;5006983;28;20032;-53
2022/07/10 12:31:27;;;;;;;7.07;1.42;;;10.30;99.90;;;;;;5008932;28;20040;-54
2022/07/10 12:33:57;;;;;;;2.95;1.00;;;10.30;99.90;;;;;;5007013;28;20038;-55
2022/07/10 12:36:25;;;;;;;3.75;1.15;;;10.20;99.90;;;;;;4993895;28;20033;-55
2022/07/10 12:39:00;;;;;;;3.67;0.80;;;10.10;99.90;;;;;;5007765;28;20549;-54
2022/07/10 12:41:27;;;;;;;5.18;1.25;;;10.10;99.90;;;;;;5009419;28;20030;-56
2022/07/10 12:43:55;;;;;;;2.22;1.00;;;10.00;99.90;;;;;;5007712;28;20033;-52
2022/07/10 12:46:24;;;;;;;3.55;1.10;;;9.90;99.90;;;;;;5008227;28;20045;-55
2022/07/10 12:49:09;;;;;;;5.68;1.52;;;9.80;99.90;;;;;;5008367;28;20022;-53
2022/07/10 12:51:44;;;;;;;7.32;1.33;;;9.80;99.90;;;;;;5009199;28;20030;-51
2022/07/10 12:54:37;;;;;;;6.18;3.45;;;9.70;99.90;;;;;;5009441;28;20029;-54
2022/07/10 12:57:07;;;;;;;5.43;1.65;;;9.70;99.90;;;;;;5007352;28;20032;-54
2022/07/10 12:59:36;;;;;;;4.82;2.78;;;9.70;99.90;;;;;;5009329;28;20053;-55
2022/07/10 13:02:20;;;;;;;4.63;2.35;;;9.70;99.90;;;;;;5007126;28;20057;-54
2022/07/10 13:04:58;;;;;;;7.57;2.60;;;9.70;99.90;;;;;;5008072;28;20061;-50
2022/07/10 13:07:33;;;;;;;5.50;3.42;;;9.60;99.90;;;;;;5006880;28;20033;-56
2022/07/10 13:10:08;;;;;;;5.65;1.65;;;9.60;99.90;;;;;;5003282;28;20145;-54
2022/07/10 13:12:35;;;;;;;;;;;9.50;99.90;;;;;;5008653;28;20440;-55